Time;durP1;ratioP1;P1;durP2;ratioP2;P2;SDS_P1;SDS_P2;PMS_P1;PMS_P2;Temp;Humidity;BMP_temperature;BMP_pressure;BME280_temperature;BME280_humidity;BME280_pressure;Samples;Min_cycle;Max_cycle;Signal;HPM_P1;HPM_P2
2021/10/23 00:07:27;;;;;;;2.40;0.52;;;6.30;99.90;;;;;;20419136;28;20830;-42
2021/10/23 00:17:28;;;;;;;0.30;0.20;;;6.40;99.90;;;;;;20388385;28;20051;-42
2021/10/23 00:27:30;;;;;;;0.70;0.20;;;6.40;99.90;;;;;;20410923;28;20040;-42
2021/10/23 00:37:31;;;;;;;1.80;0.30;;;6.40;99.90;;;;;;20405606;28;20043;-42
2021/10/23 00:47:32;;;;;;;1.02;0.17;;;6.30;99.90;;;;;;20401539;28;20483;-42
2021/10/23 00:57:33;;;;;;;1.05;0.40;;;6.30;99.90;;;;;;20404598;28;20059;-42
2021/10/23 01:07:35;;;;;;;0.90;0.40;;;6.20;99.90;;;;;;20360101;28;1640300;-42
2021/10/23 01:17:36;;;;;;;3.08;0.45;;;6.20;99.90;;;;;;20426592;28;20047;-42
2021/10/23 01:27:39;;;;;;;1.05;0.30;;;6.20;99.90;;;;;;20417486;28;20043;-42
2021/10/23 01:37:43;;;;;;;3.10;0.45;;;6.10;99.90;;;;;;20420876;28;20051;-42
2021/10/23 01:47:44;;;;;;;2.85;0.55;;;6.00;99.90;;;;;;20419067;28;20043;-42
2021/10/23 01:57:46;;;;;;;0.68;0.20;;;5.90;99.90;;;;;;20416576;28;20499;-42
2021/10/23 02:07:47;;;;;;;3.38;0.30;;;5.80;99.90;;;;;;20405656;28;20525;-42
2021/10/23 02:17:49;;;;;;;0.65;0.40;;;5.70;99.90;;;;;;20418358;28;20054;-42
2021/10/23 02:27:50;;;;;;;1.08;0.28;;;5.70;99.90;;;;;;20409363;28;20036;-42
2021/10/23 02:37:51;;;;;;;1.30;0.30;;;5.50;99.90;;;;;;20404549;28;20048;-42
2021/10/23 02:47:52;;;;;;;1.42;0.75;;;5.50;99.90;;;;;;20410265;28;20457;-41
2021/10/23 02:57:53;;;;;;;0.70;0.20;;;5.50;99.90;;;;;;20400664;28;20047;-42
2021/10/23 03:07:55;;;;;;;0.93;0.10;;;5.40;99.90;;;;;;20404505;28;20059;-42
2021/10/23 03:17:57;;;;;;;0.45;0.20;;;5.30;99.90;;;;;;20402172;28;20200;-42
2021/10/23 03:27:58;;;;;;;0.57;0.50;;;5.20;99.90;;;;;;20408690;28;20057;-42
2021/10/23 03:37:59;;;;;;;1.13;0.35;;;5.20;99.90;;;;;;20414438;28;20058;-42
2021/10/23 03:48:00;;;;;;;0.90;0.30;;;5.10;99.90;;;;;;20418116;28;20090;-42
2021/10/23 03:58:02;;;;;;;0.65;0.28;;;5.00;99.90;;;;;;20412791;28;20549;-42
2021/10/23 04:08:03;;;;;;;0.68;0.45;;;5.00;99.90;;;;;;20409224;28;20430;-42
2021/10/23 04:18:04;;;;;;;0.65;0.30;;;5.00;99.90;;;;;;20416042;28;20608;-42
2021/10/23 04:28:06;;;;;;;0.68;0.32;;;5.00;99.90;;;;;;20397378;28;20114;-42
2021/10/23 04:38:08;;;;;;;2.55;0.65;;;4.90;99.90;;;;;;20414782;28;20054;-42
2021/10/23 04:48:09;;;;;;;3.38;0.88;;;4.90;99.90;;;;;;20417395;28;20047;-42
2021/10/23 04:58:11;;;;;;;1.50;0.60;;;4.80;99.90;;;;;;20416445;28;20039;-42
2021/10/23 05:08:13;;;;;;;1.05;0.40;;;4.80;99.90;;;;;;20423198;28;20079;-42
2021/10/23 05:18:15;;;;;;;2.78;0.93;;;4.90;99.90;;;;;;20425135;28;20540;-42
2021/10/23 05:28:16;;;;;;;1.15;0.25;;;4.80;99.90;;;;;;20404089;28;20055;-42
2021/10/23 05:38:17;;;;;;;1.45;0.40;;;4.70;99.90;;;;;;20420304;28;20048;-42
2021/10/23 05:48:18;;;;;;;2.95;1.55;;;4.70;99.90;;;;;;20427958;28;20043;-42
2021/10/23 05:58:19;;;;;;;2.58;0.73;;;4.90;99.90;;;;;;20431076;28;20070;-42
2021/10/23 06:08:20;;;;;;;1.42;1.00;;;5.10;99.90;;;;;;20433343;28;20051;-42
2021/10/23 06:18:21;;;;;;;1.48;0.63;;;5.30;99.90;;;;;;20423349;28;20051;-42
2021/10/23 06:28:23;;;;;;;2.08;0.75;;;5.50;99.90;;;;;;20425457;28;20046;-42
2021/10/23 06:38:24;;;;;;;5.03;0.50;;;5.70;99.90;;;;;;20426205;28;20402;-42
2021/10/23 06:48:26;;;;;;;1.45;0.60;;;5.80;99.90;;;;;;20422545;28;20043;-42
2021/10/23 06:58:27;;;;;;;2.75;0.60;;;6.00;99.90;;;;;;20416767;28;20059;-42
2021/10/23 07:08:28;;;;;;;2.00;0.80;;;6.20;99.90;;;;;;20415685;28;20055;-42
2021/10/23 07:18:29;;;;;;;2.65;1.30;;;6.50;99.90;;;;;;20418552;28;20066;-42
2021/10/23 07:28:31;;;;;;;6.65;1.35;;;6.80;99.90;;;;;;20407639;28;20047;-42
2021/10/23 07:38:32;;;;;;;2.42;1.23;;;7.10;99.90;;;;;;20411597;29;20066;-42
2021/10/23 07:48:35;;;;;;;4.45;1.33;;;7.50;99.90;;;;;;20402845;28;20394;-42
2021/10/23 07:58:36;;;;;;;7.00;1.83;;;7.70;99.90;;;;;;20407853;28;20059;-42
2021/10/23 08:08:37;;;;;;;5.68;2.03;;;8.00;99.90;;;;;;20406601;28;20047;-42
2021/10/23 08:18:44;;;;;;;7.50;2.10;;;8.30;99.90;;;;;;20406606;28;20077;-43
2021/10/23 08:28:45;;;;;;;4.90;2.05;;;8.50;99.90;;;;;;20409710;28;20039;-42
2021/10/23 08:38:46;;;;;;;6.07;3.17;;;8.70;99.90;;;;;;20406659;28;20555;-42
2021/10/23 08:48:54;;;;;;;8.13;2.65;;;8.90;99.90;;;;;;20399520;28;20070;-42
2021/10/23 08:58:55;;;;;;;11.65;3.05;;;9.10;99.90;;;;;;20394381;29;20051;-42
2021/10/23 09:09:11;;;;;;;5.85;3.13;;;9.30;99.90;;;;;;20391350;28;20051;-42
2021/10/23 09:19:13;;;;;;;9.90;3.92;;;9.50;99.90;;;;;;20392335;28;20043;-42
2021/10/23 09:29:20;;;;;;;11.45;4.40;;;9.60;99.90;;;;;;20404440;28;20035;-42
2021/10/23 09:39:27;;;;;;;12.03;3.37;;;9.80;99.90;;;;;;20398390;28;20039;-42
2021/10/23 09:49:28;;;;;;;9.57;3.93;;;10.00;99.90;;;;;;20431647;28;20043;-42
2021/10/23 09:59:34;;;;;;;9.40;3.92;;;10.10;99.90;;;;;;20451754;28;20051;-42
2021/10/23 10:09:36;;;;;;;11.77;3.60;;;10.20;99.90;;;;;;20417506;28;20058;-42
2021/10/23 10:19:38;;;;;;;7.30;3.33;;;10.30;99.90;;;;;;20424347;28;20043;-42
2021/10/23 10:29:54;;;;;;;11.52;2.97;;;10.40;99.90;;;;;;20450537;28;20104;-42
2021/10/23 10:40:33;;;;;;;8.20;2.78;;;10.50;99.90;;;;;;20440533;28;20050;-42
2021/10/23 10:50:43;;;;;;;10.25;3.83;;;10.60;99.90;;;;;;20444396;28;20062;-42
2021/10/23 11:00:52;;;;;;;9.48;3.47;;;10.60;99.90;;;;;;20440864;28;20492;-42
2021/10/23 11:10:53;;;;;;;8.30;2.80;;;10.60;99.90;;;;;;20426187;28;20051;-42
2021/10/23 11:20:54;;;;;;;8.73;3.78;;;10.80;99.90;;;;;;20442741;28;20494;-42
2021/10/23 11:30:56;;;;;;;12.07;3.55;;;10.80;99.90;;;;;;20430832;28;20054;-41
2021/10/23 11:40:59;;;;;;;7.55;3.50;;;10.90;99.90;;;;;;20433380;28;20027;-42
2021/10/23 11:51:00;;;;;;;12.75;2.92;;;11.00;99.90;;;;;;20432987;28;20055;-42
2021/10/23 12:01:19;;;;;;;7.63;2.72;;;11.10;99.90;;;;;;20423535;28;20035;-42
2021/10/23 12:11:26;;;;;;;9.15;3.85;;;11.30;99.90;;;;;;20434668;28;20051;-42
2021/10/23 12:21:41;;;;;;;4.15;2.15;;;11.30;99.90;;;;;;20429239;28;20048;-42
2021/10/23 12:32:08;;;;;;;5.75;2.78;;;11.30;99.90;;;;;;20420231;28;20031;-42
2021/10/23 12:42:09;;;;;;;5.97;2.60;;;11.40;99.90;;;;;;20429408;28;20052;-42
2021/10/23 12:52:11;;;;;;;9.10;2.33;;;11.40;99.90;;;;;;20441513;28;20070;-42
2021/10/23 13:02:12;;;;;;;4.65;2.45;;;11.60;99.90;;;;;;20449089;28;20043;-42
2021/10/23 13:12:13;;;;;;;8.27;2.72;;;11.50;99.90;;;;;;20455027;28;20071;-42
2021/10/23 13:22:15;;;;;;;4.03;1.95;;;11.60;99.90;;;;;;20451741;28;20039;-42
2021/10/23 13:32:16;;;;;;;6.22;2.17;;;11.60;99.90;;;;;;20451713;28;20948;-45
2021/10/23 13:42:18;;;;;;;5.95;2.58;;;11.50;99.90;;;;;;20447806;28;20047;-42
2021/10/23 13:52:19;;;;;;;5.88;3.05;;;11.50;99.90;;;;;;20447001;28;21152;-42
2021/10/23 14:02:20;;;;;;;5.95;3.22;;;11.70;99.90;;;;;;20447039;28;20040;-43
2021/10/23 14:12:21;;;;;;;9.45;3.47;;;11.70;99.90;;;;;;20448331;28;20040;-43
2021/10/23 14:22:22;;;;;;;6.70;2.92;;;11.80;99.90;;;;;;20453031;28;20493;-43
2021/10/23 14:32:23;;;;;;;7.82;2.90;;;11.80;99.90;;;;;;20449173;28;20062;-43
2021/10/23 14:42:25;;;;;;;8.05;2.78;;;11.80;99.90;;;;;;20438082;28;20426;-43
2021/10/23 14:52:26;;;;;;;6.70;3.03;;;11.80;99.90;;;;;;20446912;28;20051;-43
2021/10/23 15:02:27;;;;;;;9.30;3.65;;;11.80;99.90;;;;;;20427077;28;20047;-43
2021/10/23 15:12:30;;;;;;;5.70;3.05;;;11.80;99.90;;;;;;20436785;28;20068;-43
2021/10/23 15:22:31;;;;;;;6.63;3.03;;;11.90;99.90;;;;;;20430734;28;20601;-43
2021/10/23 15:32:32;;;;;;;8.82;3.17;;;11.90;99.90;;;;;;20434767;28;20051;-43
2021/10/23 15:42:34;;;;;;;9.63;3.38;;;11.90;99.90;;;;;;20446587;28;20378;-43
2021/10/23 15:52:35;;;;;;;10.98;3.05;;;11.80;99.90;;;;;;20424414;28;20051;-43
2021/10/23 16:02:36;;;;;;;5.50;2.90;;;11.80;99.90;;;;;;20434782;28;20039;-43
2021/10/23 16:12:38;;;;;;;8.98;2.67;;;11.80;99.90;;;;;;20444483;28;20441;-43
2021/10/23 16:22:39;;;;;;;5.82;2.60;;;11.80;99.90;;;;;;20414657;28;20387;-43
2021/10/23 16:32:40;;;;;;;6.32;3.25;;;11.80;99.90;;;;;;20393708;28;20047;-43
2021/10/23 16:42:41;;;;;;;5.88;3.05;;;11.80;99.90;;;;;;20402673;28;20051;-43
2021/10/23 16:52:42;;;;;;;8.05;2.80;;;11.70;99.90;;;;;;20441180;28;20062;-43
2021/10/23 17:02:44;;;;;;;6.40;3.05;;;11.70;99.90;;;;;;20437706;28;20035;-42
2021/10/23 17:12:46;;;;;;;5.65;2.40;;;11.60;99.90;;;;;;20417416;28;20051;-43
2021/10/23 17:22:47;;;;;;;8.43;3.63;;;11.40;99.90;;;;;;20442336;28;20039;-43
2021/10/23 17:32:48;;;;;;;7.63;2.97;;;11.30;99.90;;;;;;20436753;28;20051;-43
2021/10/23 17:42:49;;;;;;;7.40;3.20;;;11.10;99.90;;;;;;20431507;28;20070;-43
2021/10/23 17:52:50;;;;;;;9.07;3.53;;;11.00;99.90;;;;;;20419958;28;20074;-43
2021/10/23 18:02:51;;;;;;;7.60;4.03;;;10.90;99.90;;;;;;20439217;28;20043;-43
2021/10/23 18:12:53;;;;;;;9.93;3.92;;;10.90;99.90;;;;;;20435091;28;20051;-43
2021/10/23 18:22:54;;;;;;;9.80;3.97;;;10.90;99.90;;;;;;20436415;28;20047;-43
2021/10/23 18:32:55;;;;;;;11.05;3.72;;;10.90;99.90;;;;;;20416973;28;20066;-43
2021/10/23 18:42:58;;;;;;;7.68;4.25;;;10.80;99.90;;;;;;20451447;29;20047;-43
2021/10/23 18:53:00;;;;;;;9.45;3.83;;;10.80;99.90;;;;;;20439285;28;20051;-43
2021/10/23 19:03:04;;;;;;;10.48;4.35;;;10.70;99.90;;;;;;20433186;28;20150;-43
2021/10/23 19:13:05;;;;;;;22.45;4.82;;;10.60;99.90;;;;;;20439071;28;20051;-43
2021/10/23 19:23:07;;;;;;;9.95;4.38;;;10.50;99.90;;;;;;20442635;28;20050;-43
2021/10/23 19:33:08;;;;;;;13.80;5.15;;;10.40;99.90;;;;;;20450396;28;20941;-42
2021/10/23 19:43:09;;;;;;;10.00;4.72;;;10.30;99.90;;;;;;20442492;28;20664;-43
2021/10/23 19:53:10;;;;;;;10.93;4.80;;;10.30;99.90;;;;;;20429734;28;20055;-43
2021/10/23 20:03:12;;;;;;;14.85;4.57;;;10.30;99.90;;;;;;20444736;28;20550;-43
2021/10/23 20:13:13;;;;;;;9.20;3.80;;;10.20;99.90;;;;;;20437273;28;20068;-42
2021/10/23 20:23:14;;;;;;;8.52;3.85;;;10.20;99.90;;;;;;20414119;28;20156;-43
2021/10/23 20:33:15;;;;;;;7.05;3.90;;;10.10;99.90;;;;;;20429756;28;20055;-43
2021/10/23 20:43:17;;;;;;;7.88;4.35;;;9.90;99.90;;;;;;20414780;28;20051;-43
2021/10/23 20:53:18;;;;;;;10.52;5.03;;;9.90;99.90;;;;;;20436329;28;20052;-43
2021/10/23 21:03:19;;;;;;;12.13;4.68;;;9.80;99.90;;;;;;20443311;28;20502;-43
2021/10/23 21:13:20;;;;;;;14.55;4.53;;;9.80;99.90;;;;;;20429392;29;20051;-43
2021/10/23 21:23:21;;;;;;;14.10;4.65;;;9.70;99.90;;;;;;20447677;28;20493;-42
2021/10/23 21:33:22;;;;;;;10.73;3.78;;;9.60;99.90;;;;;;20440846;28;20063;-43
2021/10/23 21:43:24;;;;;;;11.13;4.53;;;9.60;99.90;;;;;;20439479;28;20036;-43
2021/10/23 21:53:25;;;;;;;14.45;4.47;;;9.60;99.90;;;;;;20453945;28;20051;-43
2021/10/23 22:03:26;;;;;;;9.20;4.97;;;9.40;99.90;;;;;;20441047;28;20032;-42
2021/10/23 22:13:28;;;;;;;10.15;4.35;;;9.30;99.90;;;;;;20439731;28;20051;-43
2021/10/23 22:23:31;;;;;;;9.10;4.05;;;9.20;99.90;;;;;;20437421;28;20035;-43
2021/10/23 22:33:32;;;;;;;8.95;4.63;;;9.10;99.90;;;;;;20430120;28;20058;-43
2021/10/23 22:43:33;;;;;;;8.05;3.90;;;9.00;99.90;;;;;;20449927;28;20047;-43
2021/10/23 22:53:34;;;;;;;8.80;4.80;;;9.00;99.90;;;;;;20446780;28;20418;-43
2021/10/23 23:03:36;;;;;;;10.27;4.03;;;8.90;99.90;;;;;;20423472;28;20405;-43
2021/10/23 23:13:37;;;;;;;6.90;3.22;;;8.80;99.90;;;;;;20442156;28;20051;-43
2021/10/23 23:23:38;;;;;;;8.27;3.55;;;8.70;99.90;;;;;;20433617;28;20055;-42
2021/10/23 23:33:40;;;;;;;9.48;4.35;;;8.70;99.90;;;;;;20428973;28;20070;-43
2021/10/23 23:43:41;;;;;;;7.57;4.20;;;8.60;99.90;;;;;;20433553;28;20533;-43
2021/10/23 23:53:42;;;;;;;8.63;3.60;;;8.50;99.90;;;;;;20418603;28;20059;-43
